Time;durP1;ratioP1;P1;durP2;ratioP2;P2;SDS_P1;SDS_P2;PMS_P1;PMS_P2;Temp;Humidity;BMP_temperature;BMP_pressure;BME280_temperature;BME280_humidity;BME280_pressure;Samples;Min_cycle;Max_cycle;Signal;HPM_P1;HPM_P2
2023/07/10 00:01:18;;;;;;;5.87;5.37;;;24.10;85.30;;;;;;5023636;28;20521;-76
2023/07/10 00:03:44;;;;;;;6.33;5.73;;;24.00;85.60;;;;;;5009554;28;20253;-76
2023/07/10 00:06:14;;;;;;;6.03;5.43;;;24.00;85.80;;;;;;5008199;28;20446;-76
2023/07/10 00:08:40;;;;;;;7.63;5.90;;;24.00;86.10;;;;;;5003740;28;20180;-76
2023/07/10 00:11:30;;;;;;;6.23;5.73;;;24.00;86.50;;;;;;5008040;28;20473;-77
2023/07/10 00:13:59;;;;;;;5.10;4.70;;;23.90;86.40;;;;;;5009047;28;20465;-76
2023/07/10 00:16:28;;;;;;;6.40;5.00;;;26.40;88.70;;;;;;5012141;28;20453;-76
2023/07/10 00:18:54;;;;;;;5.53;5.03;;;24.00;88.20;;;;;;5006880;28;20438;-76
2023/07/10 00:21:20;;;;;;;7.03;5.50;;;27.40;90.20;;;;;;5010941;28;21000;-76
2023/07/10 00:23:46;;;;;;;5.00;4.57;;;24.00;86.90;;;;;;5011072;28;20465;-76
2023/07/10 00:26:14;;;;;;;5.77;5.17;;;24.00;86.50;;;;;;5029659;28;20214;-76
2023/07/10 00:28:40;;;;;;;5.47;4.97;;;23.90;87.90;;;;;;5027737;28;20493;-76
2023/07/10 00:31:08;;;;;;;5.87;5.37;;;23.90;87.50;;;;;;5013074;28;20959;-75
2023/07/10 00:33:33;;;;;;;6.50;5.30;;;24.00;88.00;;;;;;5015121;28;20198;-75
2023/07/10 00:35:59;;;;;;;5.67;5.03;;;24.00;88.60;;;;;;5016288;28;20434;-75
2023/07/10 00:38:31;;;;;;;5.20;4.80;;;23.90;86.80;;;;;;5013250;28;20218;-75
2023/07/10 00:41:03;;;;;;;5.93;5.27;;;24.10;85.90;;;;;;5017920;28;20195;-75
2023/07/10 00:43:37;;;;;;;5.63;5.03;;;24.10;84.20;;;;;;5030537;28;20585;-75
2023/07/10 00:46:33;;;;;;;5.57;5.07;;;24.10;82.60;;;;;;5019378;28;20445;-75
2023/07/10 00:49:17;;;;;;;5.50;4.70;;;24.30;81.30;;;;;;5015865;28;21025;-75
2023/07/10 00:51:55;;;;;;;5.70;5.23;;;24.50;81.20;;;;;;5014295;28;20461;-75
2023/07/10 00:54:34;;;;;;;5.93;5.33;;;24.50;82.80;;;;;;5016870;28;20449;-75
2023/07/10 00:57:04;;;;;;;5.03;4.63;;;24.70;82.30;;;;;;5017146;28;20445;-75
2023/07/10 00:59:36;;;;;;;5.67;4.80;;;22.10;79.40;;;;;;5014021;28;20446;-75
2023/07/10 01:02:08;;;;;;;6.03;4.73;;;24.50;81.60;;;;;;5019133;28;20440;-75
2023/07/10 01:04:34;;;;;;;5.00;4.60;;;24.50;81.50;;;;;;5018265;28;20461;-75
2023/07/10 01:07:00;;;;;;;5.90;5.40;;;24.40;82.90;;;;;;5030449;28;20967;-75
2023/07/10 01:09:27;;;;;;;6.30;5.60;;;24.40;82.50;;;;;;5016500;28;20445;-75
2023/07/10 01:11:53;;;;;;;5.93;5.23;;;24.30;83.80;;;;;;5016800;28;20435;-75
2023/07/10 01:14:20;;;;;;;6.10;4.90;;;24.20;83.50;;;;;;5016260;28;20488;-75
2023/07/10 01:16:47;;;;;;;5.30;4.80;;;24.10;84.20;;;;;;5016825;28;20179;-75
2023/07/10 01:19:20;;;;;;;7.23;5.20;;;23.90;84.60;;;;;;5017620;28;21136;-76
2023/07/10 01:21:45;;;;;;;6.03;5.03;;;24.10;84.90;;;;;;5012738;28;20483;-76
2023/07/10 01:24:11;;;;;;;5.37;4.77;;;;;;;;;;5018552;28;20576;-76
2023/07/10 01:26:39;;;;;;;5.67;5.20;;;24.10;84.60;;;;;;5019078;28;20222;-74
2023/07/10 01:29:25;;;;;;;6.27;5.23;;;24.00;85.00;;;;;;5013689;28;20879;-74
2023/07/10 01:31:53;;;;;;;6.33;4.83;;;24.00;85.70;;;;;;5016762;28;20956;-75
2023/07/10 01:34:22;;;;;;;6.20;5.60;;;24.00;86.10;;;;;;5017821;28;20460;-75
2023/07/10 01:36:49;;;;;;;6.03;5.20;;;23.90;85.80;;;;;;5016393;28;20469;-75
2023/07/10 01:39:15;;;;;;;6.23;5.63;;;;;;;;;;5018573;28;20442;-75
2023/07/10 01:41:45;;;;;;;5.73;5.23;;;23.80;85.60;;;;;;5033825;28;20495;-75
2023/07/10 01:44:27;;;;;;;5.20;4.70;;;23.80;86.90;;;;;;5014417;28;20463;-75
2023/07/10 01:46:54;;;;;;;6.17;4.77;;;23.80;87.20;;;;;;5018650;28;20467;-75
2023/07/10 01:49:24;;;;;;;5.87;5.30;;;23.70;87.50;;;;;;5018402;28;20434;-75
2023/07/10 01:51:51;;;;;;;5.63;5.13;;;23.60;88.00;;;;;;5018120;28;20449;-75
2023/07/10 01:54:17;;;;;;;6.00;5.03;;;23.60;88.40;;;;;;5019367;28;20464;-75
2023/07/10 01:56:43;;;;;;;8.03;5.47;;;23.50;88.30;;;;;;5017127;28;20446;-75
2023/07/10 01:59:09;;;;;;;5.37;4.90;;;23.50;88.80;;;;;;5012417;28;20803;-75
2023/07/10 02:01:36;;;;;;;6.03;5.43;;;;;;;;;;5017531;28;21499;-75
2023/07/10 02:04:02;;;;;;;5.70;5.10;;;23.50;88.70;;;;;;5017826;28;20472;-75
2023/07/10 02:06:28;;;;;;;6.17;5.63;;;23.50;90.00;;;;;;5018263;28;20457;-76
2023/07/10 02:08:54;;;;;;;6.23;5.43;;;23.40;90.60;;;;;;5011639;28;20508;-76
2023/07/10 02:11:20;;;;;;;5.97;5.37;;;23.40;90.80;;;;;;5016105;28;20589;-75
2023/07/10 02:13:46;;;;;;;6.07;5.57;;;;;;;;;;5016457;28;20249;-75
2023/07/10 02:16:13;;;;;;;5.50;5.00;;;23.20;90.60;;;;;;5017035;28;20496;-75
2023/07/10 02:18:39;;;;;;;5.87;5.30;;;23.20;91.00;;;;;;5011455;28;20532;-75
2023/07/10 02:21:05;;;;;;;7.53;6.00;;;;;;;;;;5016102;28;20485;-75
2023/07/10 02:23:31;;;;;;;5.80;5.30;;;;;;;;;;5015840;28;20692;-76
2023/07/10 02:25:57;;;;;;;5.83;5.23;;;23.20;90.90;;;;;;5017491;28;20547;-76
2023/07/10 02:28:22;;;;;;;5.93;5.43;;;23.30;91.60;;;;;;5014266;28;21021;-75
2023/07/10 02:30:48;;;;;;;6.80;5.60;;;23.10;91.30;;;;;;5017631;28;20217;-75
2023/07/10 02:33:14;;;;;;;5.47;4.97;;;22.40;91.40;;;;;;5019048;28;20202;-75
2023/07/10 02:35:40;;;;;;;6.07;5.57;;;21.90;91.40;;;;;;5018869;28;20433;-75
2023/07/10 02:38:07;;;;;;;9.23;5.53;;;23.20;92.30;;;;;;5017517;28;20450;-75
2023/07/10 02:40:33;;;;;;;6.90;6.23;;;;;;;;;;5017909;28;20197;-75
2023/07/10 02:42:59;;;;;;;5.60;5.10;;;23.20;92.30;;;;;;5011870;28;20462;-75
2023/07/10 02:45:25;;;;;;;6.23;5.37;;;23.20;92.70;;;;;;5019977;28;20578;-75
2023/07/10 02:47:51;;;;;;;6.03;4.83;;;23.20;92.60;;;;;;5016637;28;20195;-75
2023/07/10 02:50:17;;;;;;;7.13;6.00;;;;;;;;;;5015373;28;20487;-75
2023/07/10 02:52:43;;;;;;;5.57;4.77;;;23.20;92.60;;;;;;5017774;28;20376;-75
2023/07/10 02:55:09;;;;;;;6.40;5.80;;;23.20;93.50;;;;;;5016300;28;20491;-75
2023/07/10 02:57:34;;;;;;;6.83;6.20;;;23.30;93.80;;;;;;5014033;28;20195;-75
2023/07/10 03:00:00;;;;;;;6.53;5.77;;;23.20;93.50;;;;;;5030902;28;20183;-75
2023/07/10 03:02:25;;;;;;;7.00;6.30;;;23.30;93.80;;;;;;5016749;28;20262;-75
2023/07/10 03:04:51;;;;;;;6.20;5.60;;;23.30;94.50;;;;;;5016521;28;20195;-75
2023/07/10 03:07:17;;;;;;;6.23;5.73;;;23.40;95.20;;;;;;5031026;28;20187;-75
2023/07/10 03:09:42;;;;;;;7.00;6.07;;;23.20;95.10;;;;;;5013981;28;20260;-76
2023/07/10 03:12:09;;;;;;;6.63;5.80;;;23.30;95.50;;;;;;5015907;28;20182;-76
2023/07/10 03:14:34;;;;;;;6.70;6.10;;;23.40;95.50;;;;;;5013767;28;20206;-76
2023/07/10 03:17:00;;;;;;;6.47;6.00;;;23.40;95.90;;;;;;5015949;28;20517;-76
2023/07/10 03:19:31;;;;;;;6.13;5.50;;;23.30;95.80;;;;;;5014652;28;20190;-76
2023/07/10 03:21:57;;;;;;;6.80;6.17;;;23.30;96.00;;;;;;5014610;28;20442;-76
2023/07/10 03:24:23;;;;;;;7.47;6.87;;;23.20;96.30;;;;;;5028208;28;20840;-76
2023/07/10 03:26:48;;;;;;;7.30;6.40;;;23.30;96.60;;;;;;5018129;28;20195;-76
2023/07/10 03:29:15;;;;;;;8.50;7.10;;;23.30;96.20;;;;;;5014289;28;20456;-75
2023/07/10 03:31:42;;;;;;;10.70;6.87;;;23.30;96.60;;;;;;5017667;28;20214;-75
2023/07/10 03:34:10;;;;;;;8.00;6.30;;;23.40;96.40;;;;;;5016452;28;20462;-75
2023/07/10 03:36:36;;;;;;;6.50;5.90;;;23.60;96.40;;;;;;5014210;28;20457;-76
2023/07/10 03:39:02;;;;;;;7.80;6.90;;;23.50;96.60;;;;;;5012694;28;20449;-76
2023/07/10 03:41:27;;;;;;;7.13;6.47;;;23.50;96.50;;;;;;5016363;28;20578;-76
2023/07/10 03:43:53;;;;;;;8.13;7.43;;;23.50;96.60;;;;;;5015068;28;20234;-76
2023/07/10 03:46:19;;;;;;;7.00;6.40;;;23.50;96.90;;;;;;5027774;28;20191;-76
2023/07/10 03:48:45;;;;;;;7.23;6.40;;;23.50;97.00;;;;;;5015913;28;20201;-75
2023/07/10 03:51:11;;;;;;;10.53;6.70;;;;;;;;;;5012897;28;20470;-75
2023/07/10 03:53:36;;;;;;;6.80;5.70;;;23.40;96.80;;;;;;5016383;28;20198;-75
2023/07/10 03:56:02;;;;;;;7.67;6.97;;;23.10;97.00;;;;;;5016559;28;20464;-75
2023/07/10 03:58:32;;;;;;;7.93;6.20;;;23.50;97.40;;;;;;5012019;28;20620;-75
2023/07/10 04:00:59;;;;;;;9.23;8.30;;;23.70;96.50;;;;;;5013347;28;20195;-75
2023/07/10 04:03:27;;;;;;;9.37;6.70;;;23.60;96.90;;;;;;5015089;28;20457;-72
2023/07/10 04:05:54;;;;;;;8.07;6.80;;;23.70;96.80;;;;;;5003761;28;20505;-70
2023/07/10 04:08:27;;;;;;;6.80;6.10;;;24.10;96.80;;;;;;5005043;28;20437;-70
2023/07/10 04:10:54;;;;;;;8.47;6.43;;;23.80;96.60;;;;;;5020438;28;21118;-70
2023/07/10 04:13:20;;;;;;;7.03;6.43;;;23.80;96.70;;;;;;5003351;28;20504;-70
2023/07/10 04:16:06;;;;;;;7.27;6.57;;;23.90;96.70;;;;;;5005508;28;20442;-70
2023/07/10 04:18:36;;;;;;;7.03;6.43;;;23.90;96.60;;;;;;5005309;28;20531;-70
2023/07/10 04:21:05;;;;;;;6.53;5.97;;;24.00;96.60;;;;;;5006430;28;20532;-70
2023/07/10 04:23:31;;;;;;;6.90;6.23;;;23.90;96.30;;;;;;5003833;28;20470;-70
2023/07/10 04:25:57;;;;;;;6.40;5.87;;;24.00;96.50;;;;;;5007464;28;20471;-70
2023/07/10 04:28:23;;;;;;;7.83;5.87;;;24.00;96.40;;;;;;5004777;28;21011;-70
2023/07/10 04:30:50;;;;;;;7.53;6.53;;;24.10;96.30;;;;;;5006587;28;20286;-70
2023/07/10 04:33:16;;;;;;;7.30;6.57;;;24.20;96.10;;;;;;5006170;28;21108;-70
2023/07/10 04:35:43;;;;;;;7.10;6.37;;;24.20;96.10;;;;;;5006960;28;20498;-70
2023/07/10 04:38:09;;;;;;;8.17;6.70;;;24.10;96.00;;;;;;5004693;28;20449;-70
2023/07/10 04:40:35;;;;;;;7.60;6.50;;;24.10;96.10;;;;;;5006133;28;20463;-70
2023/07/10 04:43:02;;;;;;;6.73;6.13;;;24.20;96.10;;;;;;5009647;28;20710;-70
2023/07/10 04:45:28;;;;;;;6.53;6.03;;;24.20;96.00;;;;;;5008379;28;20199;-70
2023/07/10 04:47:53;;;;;;;7.37;6.07;;;24.30;96.00;;;;;;5004265;28;20971;-69
2023/07/10 04:50:21;;;;;;;8.83;6.37;;;24.30;95.80;;;;;;5005145;28;20601;-70
2023/07/10 04:52:48;;;;;;;7.83;6.50;;;24.40;96.10;;;;;;5009879;28;20261;-70
2023/07/10 04:55:14;;;;;;;7.27;6.30;;;24.20;96.00;;;;;;5009127;28;20442;-70
2023/07/10 04:57:39;;;;;;;8.97;7.63;;;24.30;96.10;;;;;;5004763;28;20446;-70
2023/07/10 05:00:06;;;;;;;8.03;6.37;;;24.40;96.00;;;;;;5006701;28;20199;-70
2023/07/10 05:02:31;;;;;;;6.47;5.87;;;24.50;95.50;;;;;;5006687;28;20191;-70
2023/07/10 05:04:57;;;;;;;12.70;7.20;;;24.50;95.80;;;;;;5007103;28;21006;-70
2023/07/10 05:07:22;;;;;;;6.87;6.20;;;24.50;95.90;;;;;;5006121;28;20266;-69
2023/07/10 05:09:48;;;;;;;7.73;6.83;;;24.50;95.90;;;;;;5004146;28;20215;-69
2023/07/10 05:12:13;;;;;;;8.90;6.97;;;24.50;96.00;;;;;;5007317;28;20645;-70
2023/07/10 05:14:39;;;;;;;8.37;7.40;;;24.60;96.00;;;;;;4997911;28;20267;-67
2023/07/10 05:17:05;;;;;;;6.70;6.10;;;24.70;96.10;;;;;;5010264;28;21703;-68
2023/07/10 05:19:32;;;;;;;7.83;6.30;;;24.80;95.60;;;;;;5009798;28;20246;-69
2023/07/10 05:22:00;;;;;;;8.23;7.00;;;24.90;95.00;;;;;;5004134;28;20266;-68
2023/07/10 05:24:26;;;;;;;6.53;6.03;;;25.00;94.70;;;;;;5010327;28;20468;-68
2023/07/10 05:26:52;;;;;;;8.90;6.50;;;25.10;94.70;;;;;;5009458;28;20447;-69
2023/07/10 05:29:18;;;;;;;7.60;6.43;;;25.30;94.80;;;;;;5008231;28;20602;-68
2023/07/10 05:31:44;;;;;;;7.13;6.43;;;25.40;94.40;;;;;;5008289;28;20229;-69
2023/07/10 05:34:09;;;;;;;8.73;6.23;;;25.60;94.10;;;;;;5007244;28;20471;-68
2023/07/10 05:36:35;;;;;;;10.27;7.17;;;25.80;93.90;;;;;;5006454;28;20202;-68
2023/07/10 05:39:01;;;;;;;9.97;6.80;;;26.00;93.80;;;;;;5005006;28;20225;-69
2023/07/10 05:41:26;;;;;;;7.27;6.50;;;26.10;93.20;;;;;;5007437;28;20186;-69
2023/07/10 05:43:52;;;;;;;8.13;6.80;;;26.20;92.50;;;;;;5004882;28;20753;-69
2023/07/10 05:46:18;;;;;;;6.13;5.53;;;26.40;92.10;;;;;;5009801;28;20198;-69
2023/07/10 05:48:44;;;;;;;8.93;7.13;;;26.60;91.90;;;;;;5011081;28;20309;-69
2023/07/10 05:51:09;;;;;;;7.73;7.03;;;26.80;91.20;;;;;;5011137;28;20879;-69
2023/07/10 05:53:35;;;;;;;13.80;7.23;;;27.00;90.90;;;;;;5009864;28;20566;-69
2023/07/10 05:56:02;;;;;;;8.63;6.60;;;26.90;90.60;;;;;;5025230;28;20682;-69
2023/07/10 05:58:30;;;;;;;11.30;7.13;;;26.90;90.70;;;;;;5003227;28;20218;-69
2023/07/10 06:00:58;;;;;;;6.40;5.73;;;27.00;90.50;;;;;;5009116;28;20541;-68
2023/07/10 06:03:25;;;;;;;9.07;6.77;;;27.00;90.50;;;;;;5010395;28;20828;-69
2023/07/10 06:05:55;;;;;;;9.07;6.50;;;27.00;90.40;;;;;;5010553;28;20444;-69
2023/07/10 06:08:21;;;;;;;6.57;5.90;;;27.00;90.00;;;;;;5005106;28;20485;-69
2023/07/10 06:10:47;;;;;;;7.37;6.67;;;27.20;89.50;;;;;;5009472;28;20496;-69
2023/07/10 06:13:13;;;;;;;7.10;6.47;;;27.30;88.60;;;;;;5007985;28;20807;-69
2023/07/10 06:15:43;;;;;;;7.03;6.40;;;27.30;87.80;;;;;;5009971;28;20198;-69
2023/07/10 06:18:09;;;;;;;8.73;6.60;;;27.30;87.70;;;;;;5009740;28;20174;-69
2023/07/10 06:20:34;;;;;;;7.10;6.50;;;27.40;87.50;;;;;;5007708;28;20569;-69
2023/07/10 06:23:00;;;;;;;7.07;6.53;;;27.70;87.30;;;;;;5009271;28;20512;-66
2023/07/10 06:25:26;;;;;;;7.97;7.20;;;27.80;86.20;;;;;;5010363;28;20190;-68
2023/07/10 06:27:51;;;;;;;7.10;6.07;;;28.10;85.60;;;;;;5005340;28;20278;-69
2023/07/10 06:30:17;;;;;;;6.07;5.57;;;28.30;84.80;;;;;;5024087;28;20224;-69
2023/07/10 06:32:43;;;;;;;7.03;6.00;;;28.60;84.10;;;;;;5008807;28;20313;-68
2023/07/10 06:35:12;;;;;;;7.80;7.00;;;28.70;83.60;;;;;;5008741;28;20546;-68
2023/07/10 06:37:39;;;;;;;6.97;5.80;;;28.80;82.60;;;;;;5004320;28;20191;-68
2023/07/10 06:40:11;;;;;;;7.50;5.70;;;28.60;83.30;;;;;;5009388;28;20457;-68
2023/07/10 06:42:37;;;;;;;6.77;6.07;;;28.40;83.80;;;;;;5007470;28;20518;-68
2023/07/10 06:45:04;;;;;;;7.10;6.50;;;28.50;84.10;;;;;;5009977;28;20490;-68
2023/07/10 06:47:31;;;;;;;9.47;6.47;;;28.70;83.60;;;;;;5009601;28;20204;-69
2023/07/10 06:49:58;;;;;;;7.70;6.90;;;28.90;83.10;;;;;;5009557;28;20468;-69
2023/07/10 06:52:23;;;;;;;7.93;7.13;;;29.30;80.80;;;;;;5007991;28;20977;-68
2023/07/10 06:54:49;;;;;;;6.60;6.10;;;29.40;81.60;;;;;;5008645;28;20540;-68
2023/07/10 06:57:15;;;;;;;7.37;5.80;;;29.50;81.30;;;;;;5010816;28;20187;-68
2023/07/10 06:59:40;;;;;;;6.53;6.03;;;29.70;79.90;;;;;;5008135;28;20679;-68
2023/07/10 07:02:06;;;;;;;11.07;6.50;;;29.80;79.10;;;;;;5009475;28;20245;-68
2023/07/10 07:04:32;;;;;;;6.60;5.97;;;30.00;79.20;;;;;;5008791;28;20210;-68
2023/07/10 07:06:58;;;;;;;6.53;5.90;;;30.10;78.40;;;;;;5008320;28;20190;-68
2023/07/10 07:09:24;;;;;;;7.43;6.80;;;30.20;78.10;;;;;;5008702;28;20571;-68
2023/07/10 07:11:49;;;;;;;7.67;5.77;;;30.40;77.50;;;;;;5024044;28;21009;-68
2023/07/10 07:14:15;;;;;;;7.63;6.03;;;31.10;75.70;;;;;;5005676;28;20468;-68
2023/07/10 07:16:40;;;;;;;8.53;7.80;;;32.00;71.90;;;;;;5009877;28;20182;-68
2023/07/10 07:19:06;;;;;;;7.17;5.83;;;32.10;70.30;;;;;;5009753;28;20206;-68
2023/07/10 07:21:32;;;;;;;6.27;5.67;;;32.80;68.80;;;;;;5006124;28;20278;-68
2023/07/10 07:23:57;;;;;;;8.33;5.87;;;33.10;66.80;;;;;;5010332;28;20650;-68
2023/07/10 07:26:24;;;;;;;5.70;5.30;;;33.00;66.10;;;;;;5008364;28;20190;-68
2023/07/10 07:28:50;;;;;;;7.20;6.00;;;32.70;66.30;;;;;;5006980;28;20181;-68
2023/07/10 07:31:16;;;;;;;16.67;7.40;;;32.30;67.50;;;;;;5008244;28;20483;-68
2023/07/10 07:33:42;;;;;;;5.47;5.00;;;32.00;68.40;;;;;;5012795;28;20291;-67
2023/07/10 07:36:07;;;;;;;10.67;7.00;;;31.80;69.50;;;;;;5009721;28;20189;-67
2023/07/10 07:38:33;;;;;;;5.97;5.37;;;31.90;69.30;;;;;;5009998;28;20516;-67
2023/07/10 07:40:59;;;;;;;5.20;4.47;;;32.60;67.20;;;;;;5008926;28;20213;-68
2023/07/10 07:43:25;;;;;;;4.77;4.37;;;33.90;63.50;;;;;;5009199;28;20989;-68
2023/07/10 07:45:53;;;;;;;6.10;5.20;;;34.70;60.20;;;;;;5010395;28;20186;-68
2023/07/10 07:48:19;;;;;;;5.23;4.70;;;34.90;59.50;;;;;;5015032;28;20529;-68
2023/07/10 07:51:04;;;;;;;5.90;5.30;;;34.70;58.80;;;;;;5009869;28;20652;-68
2023/07/10 07:53:33;;;;;;;5.10;4.70;;;34.40;59.10;;;;;;5008240;28;20463;-68
2023/07/10 07:55:59;;;;;;;5.47;4.97;;;34.70;59.20;;;;;;5008715;28;20426;-67
2023/07/10 07:58:25;;;;;;;5.20;4.80;;;35.50;57.30;;;;;;5006066;28;20476;-67
2023/07/10 08:00:51;;;;;;;5.37;4.87;;;36.80;55.30;;;;;;5009169;28;20235;-68
2023/07/10 08:03:16;;;;;;;5.30;4.83;;;38.30;52.60;;;;;;5008290;28;21014;-67
2023/07/10 08:05:42;;;;;;;6.07;5.20;;;39.30;49.70;;;;;;5008692;28;20179;-68
2023/07/10 08:08:13;;;;;;;5.23;4.83;;;39.60;48.30;;;;;;5006015;28;20191;-68
2023/07/10 08:10:45;;;;;;;5.37;4.97;;;39.80;47.20;;;;;;5009344;28;20207;-68
2023/07/10 08:13:12;;;;;;;6.20;5.60;;;40.00;46.90;;;;;;5004180;28;20461;-68
2023/07/10 08:15:38;;;;;;;5.63;5.13;;;40.20;46.70;;;;;;5010176;28;20861;-68
2023/07/10 08:18:04;;;;;;;6.57;6.17;;;41.90;44.10;;;;;;5009470;28;20501;-68
2023/07/10 08:20:30;;;;;;;4.63;4.30;;;42.70;42.20;;;;;;5007644;28;20529;-68
2023/07/10 08:22:56;;;;;;;7.77;5.33;;;42.30;40.80;;;;;;5008257;28;20476;-68
2023/07/10 08:25:21;;;;;;;5.10;4.70;;;41.50;42.20;;;;;;5006555;28;20249;-68
2023/07/10 08:27:47;;;;;;;13.90;6.00;;;40.40;42.70;;;;;;5004707;28;20216;-67
2023/07/10 08:30:15;;;;;;;5.83;5.43;;;39.20;45.20;;;;;;5008924;28;20213;-67
2023/07/10 08:32:41;;;;;;;5.10;4.60;;;39.10;46.10;;;;;;5009227;28;20604;-68
2023/07/10 08:35:07;;;;;;;6.10;5.40;;;39.20;45.70;;;;;;5010992;28;20507;-67
2023/07/10 08:37:37;;;;;;;5.83;5.43;;;39.10;46.50;;;;;;5006036;28;20191;-68
2023/07/10 08:40:12;;;;;;;5.97;5.43;;;39.30;46.50;;;;;;5006167;28;20468;-67
2023/07/10 08:42:39;;;;;;;5.87;5.37;;;39.20;46.10;;;;;;5007715;28;20530;-68
2023/07/10 08:45:11;;;;;;;5.77;5.13;;;40.30;44.70;;;;;;5008195;28;20434;-68
2023/07/10 08:47:43;;;;;;;5.57;5.10;;;40.50;44.00;;;;;;5007818;28;20532;-69
2023/07/10 08:50:30;;;;;;;5.97;5.57;;;40.10;44.10;;;;;;5007785;28;20458;-68
2023/07/10 08:53:10;;;;;;;5.70;5.10;;;39.40;44.80;;;;;;5005313;28;20576;-68
2023/07/10 08:55:35;;;;;;;6.00;5.40;;;39.70;45.00;;;;;;5007722;28;20480;-68
2023/07/10 08:58:02;;;;;;;6.00;5.50;;;39.10;45.20;;;;;;5008237;28;20479;-68
2023/07/10 09:00:36;;;;;;;6.90;6.40;;;38.80;46.40;;;;;;5007793;28;20284;-68
2023/07/10 09:03:23;;;;;;;7.83;5.23;;;38.60;46.60;;;;;;5009085;28;20551;-67
2023/07/10 09:05:52;;;;;;;6.20;5.70;;;39.50;45.40;;;;;;5007066;28;20438;-67
2023/07/10 09:08:18;;;;;;;6.13;5.57;;;39.40;45.30;;;;;;5004439;28;21013;-68
2023/07/10 09:10:54;;;;;;;6.07;5.57;;;39.80;45.50;;;;;;5006038;28;20556;-67
2023/07/10 09:13:40;;;;;;;6.77;5.77;;;40.60;44.50;;;;;;5002702;28;20835;-68
2023/07/10 09:16:14;;;;;;;7.30;6.10;;;39.40;44.50;;;;;;5005491;28;21005;-68
2023/07/10 09:18:52;;;;;;;6.10;5.50;;;38.50;47.00;;;;;;5009123;28;20442;-67
2023/07/10 09:21:27;;;;;;;7.37;6.67;;;37.80;48.80;;;;;;5011554;28;20441;-67
2023/07/10 09:23:52;;;;;;;5.87;5.47;;;37.90;48.70;;;;;;5011258;28;20476;-67
2023/07/10 09:26:24;;;;;;;6.50;6.00;;;37.30;49.50;;;;;;5011328;28;20889;-67
2023/07/10 09:29:09;;;;;;;6.83;6.30;;;35.90;51.40;;;;;;5011916;28;20675;-67
2023/07/10 09:31:53;;;;;;;7.03;6.43;;;34.80;54.20;;;;;;5027795;28;20592;-67
2023/07/10 09:34:26;;;;;;;7.03;6.50;;;33.80;56.30;;;;;;5015573;28;20457;-67
2023/07/10 09:36:54;;;;;;;6.20;5.80;;;32.60;59.70;;;;;;5013031;28;20461;-67
2023/07/10 09:39:23;;;;;;;7.13;6.43;;;34.00;58.70;;;;;;5008871;28;20449;-67
2023/07/10 09:41:49;;;;;;;8.73;6.07;;;35.30;56.10;;;;;;5013791;28;20444;-67
2023/07/10 09:44:18;;;;;;;6.40;5.83;;;36.60;53.90;;;;;;5008114;28;21322;-67
2023/07/10 09:46:43;;;;;;;6.73;6.07;;;36.70;52.40;;;;;;5013078;28;20691;-67
2023/07/10 09:49:20;;;;;;;7.33;6.47;;;37.70;51.40;;;;;;5011245;28;20480;-68
2023/07/10 09:52:00;;;;;;;8.13;6.37;;;38.60;49.50;;;;;;5008223;28;20559;-67
2023/07/10 09:54:35;;;;;;;6.37;5.57;;;37.10;51.50;;;;;;5012274;28;20958;-68
2023/07/10 09:57:04;;;;;;;6.63;6.03;;;38.00;50.60;;;;;;5009576;28;20433;-68
2023/07/10 09:59:31;;;;;;;6.40;6.00;;;37.00;51.10;;;;;;5006855;28;21033;-68
2023/07/10 10:02:20;;;;;;;6.60;5.90;;;36.20;53.00;;;;;;5010835;28;20448;-68
2023/07/10 10:04:51;;;;;;;8.23;7.43;;;36.10;52.50;;;;;;5010554;28;20448;-68
2023/07/10 10:07:22;;;;;;;6.37;5.87;;;35.50;53.60;;;;;;5008472;28;20445;-68
2023/07/10 10:10:01;;;;;;;8.00;6.60;;;35.00;54.60;;;;;;5010375;28;20549;-68
2023/07/10 10:12:30;;;;;;;6.60;5.90;;;34.60;55.20;;;;;;5009935;28;20455;-68
2023/07/10 10:15:06;;;;;;;8.53;7.57;;;34.60;56.30;;;;;;5010938;28;20441;-68
2023/07/10 10:17:36;;;;;;;7.50;6.90;;;35.60;54.60;;;;;;5009627;28;20486;-68
2023/07/10 10:20:14;;;;;;;8.37;7.57;;;35.90;53.60;;;;;;5011186;28;20473;-69
2023/07/10 10:22:40;;;;;;;6.53;6.03;;;36.70;52.40;;;;;;5010759;28;20542;-68
2023/07/10 10:25:14;;;;;;;6.73;6.20;;;36.90;51.40;;;;;;5011823;28;20954;-68
2023/07/10 10:27:55;;;;;;;7.10;6.40;;;37.00;51.10;;;;;;5009893;28;20417;-68
2023/07/10 10:30:38;;;;;;;7.73;7.13;;;37.00;51.00;;;;;;5010315;28;20457;-68
2023/07/10 10:33:18;;;;;;;6.57;5.97;;;36.10;51.70;;;;;;5011999;28;20950;-68
2023/07/10 10:35:44;;;;;;;7.07;6.40;;;35.20;53.40;;;;;;5012285;28;20453;-68
2023/07/10 10:38:35;;;;;;;8.60;6.60;;;34.60;54.90;;;;;;5005842;28;20442;-68
2023/07/10 10:41:42;;;;;;;7.87;7.20;;;34.20;55.80;;;;;;4999301;28;20302;-68
2023/07/10 10:44:18;;;;;;;6.60;6.10;;;34.70;55.70;;;;;;4994908;28;20477;-68
2023/07/10 10:46:58;;;;;;;6.70;6.20;;;35.20;54.40;;;;;;5011611;28;20949;-68
2023/07/10 10:49:39;;;;;;;7.60;6.97;;;35.70;54.30;;;;;;5008439;28;20945;-68
2023/07/10 10:52:11;;;;;;;7.50;6.80;;;35.60;53.10;;;;;;5012041;28;20824;-67
2023/07/10 10:55:04;;;;;;;7.70;6.90;;;35.60;53.30;;;;;;5008325;28;20536;-67
2023/07/10 10:58:18;;;;;;;7.10;6.33;;;35.70;53.80;;;;;;5007891;28;20456;-68
2023/07/10 11:00:56;;;;;;;7.80;7.20;;;36.50;52.10;;;;;;5007966;28;20870;-67
2023/07/10 11:03:47;;;;;;;7.23;6.53;;;36.90;51.60;;;;;;5008606;28;20488;-67
2023/07/10 11:06:28;;;;;;;6.97;6.27;;;37.20;51.00;;;;;;5009960;28;20446;-68
2023/07/10 11:08:59;;;;;;;7.27;6.77;;;37.40;50.30;;;;;;5008601;28;20528;-68
2023/07/10 11:11:32;;;;;;;8.73;8.03;;;38.30;49.60;;;;;;5010244;28;20475;-67
2023/07/10 11:14:02;;;;;;;7.07;6.50;;;38.80;48.30;;;;;;5005718;28;20464;-67
2023/07/10 11:16:30;;;;;;;7.10;6.40;;;39.40;47.40;;;;;;5009807;28;20748;-68
2023/07/10 11:18:57;;;;;;;7.37;6.67;;;39.60;46.70;;;;;;5011785;28;20579;-68
2023/07/10 11:21:22;;;;;;;11.50;6.37;;;39.50;45.90;;;;;;5012215;28;20461;-68
2023/07/10 11:23:49;;;;;;;6.23;5.77;;;38.90;46.10;;;;;;5006175;28;20469;-67
2023/07/10 11:26:22;;;;;;;8.03;7.23;;;38.60;47.10;;;;;;5012705;28;20654;-67
2023/07/10 11:28:57;;;;;;;6.70;6.10;;;37.90;47.30;;;;;;5007410;28;21040;-67
2023/07/10 11:31:25;;;;;;;6.93;6.37;;;38.00;47.90;;;;;;5011330;28;20932;-67
2023/07/10 11:34:05;;;;;;;9.40;7.70;;;38.20;47.20;;;;;;5010159;28;20496;-67
2023/07/10 11:36:33;;;;;;;7.90;7.30;;;37.50;47.80;;;;;;5008042;28;20434;-67
2023/07/10 11:39:11;;;;;;;6.17;5.67;;;37.90;46.70;;;;;;5009161;28;20448;-68
2023/07/10 11:41:58;;;;;;;5.63;5.23;;;38.20;45.80;;;;;;5009699;28;20429;-68
2023/07/10 11:44:32;;;;;;;7.57;6.00;;;38.00;45.90;;;;;;5008964;28;20449;-68
2023/07/10 11:47:04;;;;;;;6.80;5.67;;;37.90;46.20;;;;;;5012080;28;21110;-68
2023/07/10 11:49:51;;;;;;;6.47;5.87;;;37.60;46.00;;;;;;5007624;28;20507;-68
2023/07/10 11:52:16;;;;;;;5.73;5.33;;;37.20;45.80;;;;;;5005245;28;20460;-68
2023/07/10 11:54:49;;;;;;;6.83;6.10;;;37.20;46.30;;;;;;5009376;28;20437;-68
2023/07/10 11:57:23;;;;;;;6.77;6.20;;;37.20;46.00;;;;;;5007794;28;20183;-68
2023/07/10 12:00:20;;;;;;;6.17;5.67;;;36.60;46.70;;;;;;5007658;28;20835;-68
2023/07/10 12:02:51;;;;;;;6.50;5.90;;;36.40;47.50;;;;;;5009344;28;20545;-67
2023/07/10 12:05:36;;;;;;;6.10;5.50;;;35.70;47.70;;;;;;5008496;28;20567;-67
2023/07/10 12:08:08;;;;;;;6.13;5.63;;;35.20;47.80;;;;;;5006045;28;20474;-67
2023/07/10 12:10:38;;;;;;;6.47;5.97;;;35.00;48.70;;;;;;5008976;28;20469;-67
2023/07/10 12:13:23;;;;;;;8.60;5.30;;;35.00;49.00;;;;;;5005982;28;20521;-67
2023/07/10 12:15:51;;;;;;;5.63;5.23;;;34.80;48.60;;;;;;5006987;28;20938;-67
2023/07/10 12:18:40;;;;;;;6.27;5.73;;;34.90;43.90;;;;;;5008882;28;20438;-67
2023/07/10 12:21:14;;;;;;;7.53;5.20;;;34.70;44.30;;;;;;5007773;28;20461;-68
2023/07/10 12:23:55;;;;;;;5.87;5.37;;;34.70;43.90;;;;;;5010505;28;20516;-68
2023/07/10 12:26:21;;;;;;;5.23;4.83;;;34.80;44.30;;;;;;5005858;28;20447;-68
2023/07/10 12:28:54;;;;;;;5.60;5.10;;;34.70;45.20;;;;;;5006530;28;20441;-69
2023/07/10 12:31:20;;;;;;;5.23;4.83;;;34.80;45.20;;;;;;5008430;28;20471;-69
2023/07/10 12:33:48;;;;;;;5.10;4.80;;;34.60;45.30;;;;;;5010079;28;20461;-69
2023/07/10 12:36:35;;;;;;;5.03;4.63;;;34.60;45.90;;;;;;5000472;28;20873;-69
2023/07/10 12:39:05;;;;;;;5.17;4.70;;;34.50;45.50;;;;;;5005150;28;20430;-69
2023/07/10 12:41:40;;;;;;;5.20;4.80;;;34.40;44.00;;;;;;5008401;28;20889;-69
2023/07/10 12:44:06;;;;;;;5.37;4.97;;;34.40;43.50;;;;;;5006237;28;20467;-69
2023/07/10 12:46:33;;;;;;;5.60;5.20;;;34.40;43.20;;;;;;5007580;28;20438;-69
2023/07/10 12:49:13;;;;;;;6.73;5.20;;;34.40;43.90;;;;;;5008159;28;20445;-69
2023/07/10 12:51:43;;;;;;;5.37;4.97;;;34.20;44.20;;;;;;5003500;28;20888;-69
2023/07/10 12:54:48;;;;;;;6.63;6.00;;;34.20;44.10;;;;;;5008003;28;20553;-68
2023/07/10 12:57:25;;;;;;;5.17;4.70;;;34.10;44.80;;;;;;5008215;28;20545;-68
2023/07/10 12:59:58;;;;;;;6.43;5.83;;;33.80;44.10;;;;;;5005400;28;20527;-69
2023/07/10 13:02:34;;;;;;;5.63;5.13;;;33.90;43.80;;;;;;5006885;28;20541;-69
2023/07/10 13:05:00;;;;;;;5.73;5.23;;;33.90;44.30;;;;;;5007592;28;20524;-69